Time;durP1;ratioP1;P1;durP2;ratioP2;P2;SDS_P1;SDS_P2;PMS_P1;PMS_P2;Temp;Humidity;BMP_temperature;BMP_pressure;BME280_temperature;BME280_humidity;BME280_pressure;Samples;Min_cycle;Max_cycle;Signal;HPM_P1;HPM_P2
2022/07/18 00:04:04;;;;;;;2.80;1.70;;;23.10;50.70;;;;;;220440;1268;24383;-63
2022/07/18 00:09:11;;;;;;;3.30;1.60;;;23.10;50.70;;;;;;220503;1270;22530;-61
2022/07/18 00:14:14;;;;;;;2.70;1.50;;;23.10;50.80;;;;;;220724;1267;22530;-61
2022/07/18 00:19:18;;;;;;;3.10;1.80;;;23.10;50.70;;;;;;220787;1268;24313;-63
2022/07/18 00:24:22;;;;;;;3.00;1.40;;;23.10;50.70;;;;;;220538;1267;24393;-61
2022/07/18 00:29:26;;;;;;;2.50;1.80;;;23.00;50.70;;;;;;220773;1267;22721;-64
2022/07/18 00:34:30;;;;;;;3.30;1.70;;;23.00;50.70;;;;;;220247;1268;22832;-62
2022/07/18 00:39:34;;;;;;;2.40;1.50;;;23.00;50.80;;;;;;220422;1267;22552;-62
2022/07/18 00:44:37;;;;;;;3.10;1.60;;;23.00;50.80;;;;;;220403;1270;22536;-60
2022/07/18 00:49:41;;;;;;;2.90;1.70;;;23.00;50.80;;;;;;220645;1267;24195;-60
2022/07/18 00:54:45;;;;;;;2.90;1.60;;;23.00;50.80;;;;;;220463;1267;22801;-61
2022/07/18 01:05:11;;;;;;;2.20;1.20;;;22.90;50.80;;;;;;220638;1268;22512;-62
2022/07/18 01:10:15;;;;;;;2.80;1.60;;;22.90;50.90;;;;;;220500;1267;25360;-61
2022/07/18 01:15:19;;;;;;;4.10;1.60;;;22.90;50.90;;;;;;220898;1267;24283;-60
2022/07/18 01:20:27;;;;;;;2.40;1.30;;;22.90;50.90;;;;;;220537;1267;25473;-60
2022/07/18 01:25:31;;;;;;;3.50;1.60;;;22.90;51.00;;;;;;220549;1268;22655;-61
2022/07/18 01:30:35;;;;;;;4.60;1.70;;;22.90;51.00;;;;;;220900;1267;22602;-63
2022/07/18 01:35:39;;;;;;;3.80;1.80;;;22.90;51.00;;;;;;219559;1270;656509;-60
2022/07/18 01:40:42;;;;;;;2.30;1.30;;;22.90;51.00;;;;;;220529;1270;22772;-61
2022/07/18 01:45:46;;;;;;;3.60;1.70;;;22.80;51.60;;;;;;220361;1270;22519;-62
2022/07/18 01:50:50;;;;;;;3.10;1.50;;;22.90;51.00;;;;;;220525;1270;25251;-61
2022/07/18 01:55:54;;;;;;;2.30;1.50;;;22.80;51.00;;;;;;220697;1267;24214;-63
2022/07/18 02:00:58;;;;;;;2.30;1.40;;;22.80;51.00;;;;;;220592;1270;24235;-60
2022/07/18 02:06:02;;;;;;;3.90;1.60;;;22.80;51.30;;;;;;220421;1270;22560;-60
2022/07/18 02:11:06;;;;;;;2.80;1.60;;;22.80;51.00;;;;;;220261;1270;23031;-63
2022/07/18 02:16:10;;;;;;;2.40;1.60;;;22.80;51.10;;;;;;220507;1267;24246;-61
2022/07/18 02:21:14;;;;;;;2.50;1.50;;;22.70;51.10;;;;;;220406;1267;23064;-62
2022/07/18 02:26:17;;;;;;;2.50;1.60;;;22.70;51.10;;;;;;220404;1270;23140;-61
2022/07/18 02:31:23;;;;;;;3.50;1.60;;;22.70;51.10;;;;;;220159;1271;23000;-61
2022/07/18 02:36:27;;;;;;;3.80;1.80;;;22.70;51.10;;;;;;220634;1268;22631;-60
2022/07/18 02:41:31;;;;;;;2.20;1.50;;;22.70;51.50;;;;;;220950;1267;25359;-61
2022/07/18 02:46:36;;;;;;;2.70;1.50;;;22.70;51.60;;;;;;220345;1267;25361;-61
2022/07/18 02:51:40;;;;;;;2.90;1.50;;;22.70;51.50;;;;;;220681;1267;23915;-61
2022/07/18 02:56:43;;;;;;;2.60;1.40;;;22.60;51.40;;;;;;220317;1267;22706;-59
2022/07/18 03:01:48;;;;;;;4.10;1.60;;;22.60;51.10;;;;;;220491;1268;22573;-60
2022/07/18 03:06:53;;;;;;;2.90;1.80;;;22.60;51.10;;;;;;220640;1269;22528;-58
2022/07/18 03:11:56;;;;;;;4.20;1.60;;;22.60;51.10;;;;;;220420;1270;24219;-60
2022/07/18 03:17:00;;;;;;;3.10;1.50;;;22.60;51.40;;;;;;220726;1267;22693;-61
2022/07/18 03:22:04;;;;;;;2.90;1.50;;;22.60;51.10;;;;;;220209;1267;25238;-61
2022/07/18 03:27:08;;;;;;;2.40;1.50;;;22.60;51.20;;;;;;220727;1267;24272;-62
2022/07/18 03:32:12;;;;;;;2.50;1.40;;;22.50;51.10;;;;;;220520;1267;22541;-59
2022/07/18 03:37:15;;;;;;;2.50;1.40;;;22.60;51.20;;;;;;220236;1270;22622;-59
2022/07/18 03:42:19;;;;;;;2.70;1.70;;;22.50;51.20;;;;;;220536;1270;25501;-59
2022/07/18 03:47:23;;;;;;;4.50;1.70;;;22.60;51.20;;;;;;220322;1271;22553;-61
2022/07/18 03:52:27;;;;;;;2.70;1.60;;;22.50;51.20;;;;;;220406;1271;22595;-59
2022/07/18 03:57:30;;;;;;;2.60;1.50;;;22.50;51.20;;;;;;220496;1270;22818;-60
2022/07/18 04:02:41;;;;;;;3.60;1.60;;;22.50;51.20;;;;;;220754;1270;23944;-61
2022/07/18 04:07:45;;;;;;;3.50;1.60;;;22.50;51.50;;;;;;220375;1268;25238;-59
2022/07/18 04:12:58;;;;;;;3.40;1.50;;;22.50;51.30;;;;;;220524;1269;24256;-59
2022/07/18 04:18:01;;;;;;;3.00;1.50;;;22.50;51.60;;;;;;220769;1268;24066;-62
2022/07/18 04:23:08;;;;;;;2.30;1.50;;;22.50;51.60;;;;;;220304;1269;22569;-64
2022/07/18 04:28:13;;;;;;;2.80;1.60;;;22.50;51.30;;;;;;220296;1268;22528;-61
2022/07/18 04:33:16;;;;;;;2.20;1.50;;;22.50;51.90;;;;;;220384;1270;22544;-60
2022/07/18 04:38:20;;;;;;;2.20;1.60;;;22.50;51.30;;;;;;220559;1271;23064;-60
2022/07/18 04:43:24;;;;;;;2.70;1.50;;;22.50;51.30;;;;;;220486;1268;22602;-63
2022/07/18 04:48:27;;;;;;;2.60;1.40;;;22.50;51.60;;;;;;220637;1268;22553;-62
2022/07/18 04:53:31;;;;;;;2.60;1.60;;;22.50;51.40;;;;;;220454;1268;22843;-61
2022/07/18 04:58:34;;;;;;;2.70;1.50;;;22.50;51.40;;;;;;220490;1268;22558;-63
2022/07/18 05:03:38;;;;;;;2.60;1.40;;;22.50;51.50;;;;;;220739;1271;25399;-61
2022/07/18 05:08:42;;;;;;;3.10;1.60;;;22.50;51.40;;;;;;220575;1268;22553;-61
2022/07/18 05:13:45;;;;;;;2.20;1.40;;;22.60;51.50;;;;;;220335;1268;22553;-59
2022/07/18 05:18:49;;;;;;;2.50;1.30;;;22.60;51.50;;;;;;220326;1269;22544;-61
2022/07/18 05:23:52;;;;;;;2.60;1.50;;;22.60;51.50;;;;;;220234;1271;24215;-61
2022/07/18 05:28:56;;;;;;;2.80;1.60;;;22.60;51.50;;;;;;220501;1268;26534;-62
2022/07/18 05:34:01;;;;;;;2.80;1.60;;;22.50;51.00;;;;;;220351;1268;22617;-61
2022/07/18 05:39:04;;;;;;;2.80;1.70;;;22.60;51.40;;;;;;220048;1268;22545;-63
2022/07/18 05:44:08;;;;;;;3.40;1.70;;;22.60;51.50;;;;;;220529;1268;22723;-61
2022/07/18 05:49:11;;;;;;;3.20;1.50;;;22.60;51.50;;;;;;220293;1269;22540;-60
2022/07/18 05:54:18;;;;;;;3.10;1.80;;;22.60;51.50;;;;;;220262;1271;22575;-59
2022/07/18 05:59:22;;;;;;;2.00;1.50;;;22.60;51.50;;;;;;220276;1268;24294;-60
2022/07/18 06:04:27;;;;;;;2.50;1.40;;;22.60;51.50;;;;;;220382;1268;22547;-60
2022/07/18 06:09:30;;;;;;;3.50;1.40;;;22.60;51.50;;;;;;220221;1268;22666;-59
2022/07/18 06:14:34;;;;;;;4.00;1.70;;;22.60;51.60;;;;;;220238;1268;26483;-61
2022/07/18 06:19:39;;;;;;;2.70;1.70;;;22.70;52.10;;;;;;220450;1268;22559;-58
2022/07/18 06:24:42;;;;;;;5.70;1.60;;;22.70;51.50;;;;;;220435;1268;23946;-61
2022/07/18 06:29:46;;;;;;;2.50;1.40;;;22.70;52.00;;;;;;220170;1269;24314;-56
2022/07/18 06:34:49;;;;;;;2.20;1.40;;;22.70;51.70;;;;;;220256;1268;25300;-59
2022/07/18 06:39:54;;;;;;;2.10;1.20;;;22.70;51.80;;;;;;220425;1268;24249;-63
2022/07/18 06:45:05;;;;;;;3.80;1.70;;;22.70;51.70;;;;;;220088;1268;22644;-59
2022/07/18 06:50:18;;;;;;;6.00;1.40;;;22.80;51.70;;;;;;219967;1268;22629;-59
2022/07/18 06:55:21;;;;;;;3.20;1.50;;;22.80;51.80;;;;;;220402;1268;24278;-59
2022/07/18 07:00:26;;;;;;;3.30;1.70;;;22.80;51.70;;;;;;220293;1268;22589;-61
2022/07/18 07:05:29;;;;;;;3.90;1.50;;;22.80;51.70;;;;;;220484;1267;22590;-61
2022/07/18 07:10:33;;;;;;;3.00;1.60;;;22.80;51.80;;;;;;220157;1267;22557;-61
2022/07/18 07:15:37;;;;;;;2.50;1.50;;;22.80;51.70;;;;;;220133;1268;22556;-60
2022/07/18 07:20:41;;;;;;;3.40;1.50;;;22.90;51.70;;;;;;220342;1270;22547;-60
2022/07/18 07:25:44;;;;;;;2.60;1.70;;;22.90;51.70;;;;;;220379;1267;25233;-60
2022/07/18 07:30:48;;;;;;;2.90;1.60;;;22.90;51.70;;;;;;220262;1267;25240;-61
2022/07/18 07:35:53;;;;;;;3.20;1.50;;;22.90;51.70;;;;;;220641;1267;24555;-59
2022/07/18 07:41:03;;;;;;;2.50;1.40;;;22.90;51.70;;;;;;220568;1267;23220;-59
2022/07/18 07:46:11;;;;;;;4.70;1.50;;;22.90;51.70;;;;;;220373;1267;25229;-60
2022/07/18 07:51:16;;;;;;;3.70;1.70;;;23.00;51.90;;;;;;220545;1267;23943;-61
2022/07/18 07:56:35;;;;;;;3.20;1.60;;;22.90;52.10;;;;;;220419;1268;24231;-57
2022/07/18 08:01:39;;;;;;;3.70;1.60;;;23.00;51.80;;;;;;220364;1268;24242;-62
2022/07/18 08:06:43;;;;;;;3.50;1.80;;;23.00;51.90;;;;;;220273;1267;25448;-60
2022/07/18 08:11:46;;;;;;;3.90;1.40;;;23.00;52.50;;;;;;220482;1267;25494;-58
2022/07/18 08:16:50;;;;;;;3.50;1.40;;;23.00;52.40;;;;;;220506;1267;22831;-60
2022/07/18 08:21:54;;;;;;;2.50;1.60;;;23.10;52.50;;;;;;220637;1267;22536;-59
2022/07/18 08:26:57;;;;;;;3.10;1.60;;;23.10;52.30;;;;;;220724;1268;22712;-59
2022/07/18 08:32:01;;;;;;;3.30;1.40;;;23.10;52.80;;;;;;220171;1268;22628;-60
2022/07/18 08:37:05;;;;;;;3.00;1.50;;;23.20;52.20;;;;;;220507;1267;22752;-61
2022/07/18 08:42:10;;;;;;;4.50;1.70;;;23.20;52.20;;;;;;220441;1267;23302;-58
2022/07/18 08:47:17;;;;;;;5.30;1.70;;;23.20;52.50;;;;;;220782;1267;25297;-60
2022/07/18 08:52:22;;;;;;;19.10;3.30;;;23.30;52.20;;;;;;220013;1267;22547;-61
2022/07/18 08:57:46;;;;;;;11.30;2.60;;;23.20;57.10;;;;;;220164;1267;25542;-60
2022/07/18 09:03:00;;;;;;;12.40;2.90;;;23.40;54.70;;;;;;220296;1267;22545;-58
2022/07/18 09:08:19;;;;;;;10.20;2.10;;;23.40;55.50;;;;;;220251;1267;22593;-57
2022/07/18 09:13:29;;;;;;;7.40;1.80;;;23.40;54.30;;;;;;220619;1267;22548;-58
2022/07/18 09:18:49;;;;;;;6.40;2.10;;;23.40;56.20;;;;;;219900;1267;24269;-57
2022/07/18 09:23:54;;;;;;;12.90;2.00;;;23.40;54.30;;;;;;220552;1267;22996;-60
2022/07/18 09:28:59;;;;;;;15.10;2.20;;;23.50;55.40;;;;;;220766;1267;25432;-58
2022/07/18 09:34:37;;;;;;;13.20;2.80;;;23.50;54.80;;;;;;220358;1267;22538;-60
2022/07/18 09:39:44;;;;;;;5.60;2.20;;;23.50;54.90;;;;;;220346;1267;22538;-58
2022/07/18 09:45:01;;;;;;;5.60;2.50;;;23.60;54.80;;;;;;220636;1267;25350;-60
2022/07/18 09:50:22;;;;;;;13.10;2.50;;;23.60;58.60;;;;;;220112;1267;23096;-59
2022/07/18 09:55:29;;;;;;;6.20;2.30;;;23.60;59.50;;;;;;219927;1268;23980;-60
2022/07/18 10:00:35;;;;;;;7.80;2.20;;;23.70;55.90;;;;;;220242;1268;22545;-58
2022/07/18 10:05:41;;;;;;;8.00;2.40;;;23.80;50.10;;;;;;220379;1267;24216;-60
2022/07/18 10:10:48;;;;;;;5.50;2.00;;;23.90;47.50;;;;;;220238;1267;22532;-59
2022/07/18 10:15:53;;;;;;;9.40;1.80;;;23.90;44.90;;;;;;220761;1267;22564;-58
2022/07/18 10:21:10;;;;;;;6.40;2.00;;;24.00;44.80;;;;;;220152;1268;22555;-58
2022/07/18 10:26:21;;;;;;;6.80;1.60;;;24.10;45.00;;;;;;220014;1268;27998;-59
2022/07/18 10:31:28;;;;;;;9.70;2.20;;;24.10;46.40;;;;;;220563;1267;24365;-60
2022/07/18 10:37:02;;;;;;;5.10;2.00;;;24.00;46.80;;;;;;220448;1267;24280;-62
2022/07/18 10:42:10;;;;;;;5.30;1.70;;;23.90;47.10;;;;;;220311;1267;22554;-59
2022/07/18 10:47:19;;;;;;;6.50;2.00;;;23.90;47.70;;;;;;220327;1267;22577;-62
2022/07/18 10:52:29;;;;;;;5.50;1.90;;;23.90;48.30;;;;;;220203;1267;25210;-64
2022/07/18 10:58:05;;;;;;;6.20;2.10;;;24.00;48.70;;;;;;220301;1267;24412;-62
2022/07/18 11:03:18;;;;;;;3.50;1.60;;;24.00;49.10;;;;;;220389;1267;24204;-59
2022/07/18 11:08:24;;;;;;;5.20;1.70;;;24.00;49.60;;;;;;220532;1267;22561;-62
2022/07/18 11:13:31;;;;;;;6.20;2.00;;;24.00;49.50;;;;;;220366;1267;25226;-57
2022/07/18 11:18:58;;;;;;;6.10;1.90;;;24.00;49.50;;;;;;220464;1267;22798;-58
2022/07/18 11:24:04;;;;;;;8.00;2.30;;;24.00;50.20;;;;;;220295;1268;25286;-64
2022/07/18 11:29:10;;;;;;;6.00;2.00;;;24.10;49.50;;;;;;220245;1267;22558;-59
2022/07/18 11:34:21;;;;;;;4.40;1.60;;;24.10;50.10;;;;;;220192;1267;22701;-63
2022/07/18 11:39:46;;;;;;;4.60;1.70;;;24.10;50.10;;;;;;219926;1268;24308;-62
2022/07/18 11:44:58;;;;;;;4.70;1.70;;;24.10;50.40;;;;;;220068;1267;22625;-61
2022/07/18 11:50:01;;;;;;;3.50;1.40;;;24.20;50.10;;;;;;220766;1267;22682;-62
2022/07/18 11:55:07;;;;;;;6.90;1.90;;;24.20;50.20;;;;;;219816;1268;22944;-65
2022/07/18 12:00:19;;;;;;;8.50;1.70;;;24.20;49.40;;;;;;220301;1267;22539;-60
2022/07/18 12:05:34;;;;;;;5.10;2.00;;;24.30;50.00;;;;;;220573;1267;23948;-58
2022/07/18 12:10:37;;;;;;;3.60;1.60;;;24.20;50.30;;;;;;220283;1268;22995;-59
2022/07/18 12:15:41;;;;;;;8.60;2.10;;;24.30;50.10;;;;;;220406;1268;22696;-62
2022/07/18 12:21:08;;;;;;;6.90;2.00;;;24.30;50.00;;;;;;220284;1267;22597;-61
2022/07/18 12:26:31;;;;;;;4.90;1.90;;;24.30;50.00;;;;;;220224;1267;23680;-59
2022/07/18 12:31:49;;;;;;;5.90;1.70;;;24.30;50.10;;;;;;220484;1267;22590;-61
2022/07/18 12:37:02;;;;;;;3.10;1.50;;;24.30;48.50;;;;;;220388;1267;22649;-60
2022/07/18 12:42:06;;;;;;;5.80;1.70;;;24.40;48.80;;;;;;220109;1267;22554;-60
2022/07/18 12:47:11;;;;;;;4.50;1.80;;;24.40;48.80;;;;;;220214;1267;24298;-56
2022/07/18 12:52:17;;;;;;;5.20;1.90;;;24.40;48.80;;;;;;220059;1268;22714;-62
2022/07/18 12:57:22;;;;;;;5.00;1.90;;;24.40;48.70;;;;;;220484;1267;25515;-60
2022/07/18 13:02:26;;;;;;;4.30;1.90;;;24.50;47.90;;;;;;219941;1268;22561;-63
2022/07/18 13:07:36;;;;;;;4.60;1.50;;;24.40;48.90;;;;;;219772;1268;22613;-59
2022/07/18 13:12:40;;;;;;;2.80;1.60;;;24.50;48.70;;;;;;220301;1267;25294;-60
2022/07/18 13:17:49;;;;;;;5.30;1.90;;;24.50;49.40;;;;;;219949;1267;22535;-60
2022/07/18 13:22:54;;;;;;;3.80;1.70;;;24.50;48.70;;;;;;219877;1270;22548;-61
2022/07/18 13:27:58;;;;;;;3.90;1.50;;;24.50;48.90;;;;;;220557;1267;22528;-62
2022/07/18 13:33:04;;;;;;;3.80;1.70;;;24.60;48.60;;;;;;219952;1267;555017;-62
2022/07/18 13:38:07;;;;;;;6.00;1.60;;;24.50;48.50;;;;;;220138;1268;22531;-62
2022/07/18 13:43:13;;;;;;;5.60;1.70;;;24.60;48.10;;;;;;220070;1267;22578;-61
2022/07/18 13:48:17;;;;;;;2.50;1.40;;;24.60;48.10;;;;;;219864;1267;22588;-61
2022/07/18 13:53:21;;;;;;;3.90;1.70;;;24.60;47.20;;;;;;220444;1267;24267;-60
2022/07/18 13:58:24;;;;;;;4.40;1.70;;;24.70;47.30;;;;;;220183;1267;22552;-60
2022/07/18 14:03:31;;;;;;;3.70;1.90;;;24.70;47.70;;;;;;220328;1267;23164;-62
2022/07/18 14:08:36;;;;;;;4.20;1.90;;;24.70;47.60;;;;;;220645;1267;22532;-59
2022/07/18 14:13:40;;;;;;;5.70;2.10;;;24.70;47.30;;;;;;222045;1268;22793;-61
2022/07/18 14:18:44;;;;;;;5.10;2.10;;;24.90;47.40;;;;;;220602;1267;24302;-64
2022/07/18 14:23:55;;;;;;;4.50;1.70;;;24.90;47.60;;;;;;220852;1267;24128;-57
2022/07/18 14:28:58;;;;;;;7.70;1.90;;;24.90;48.00;;;;;;220355;1268;22570;-58
2022/07/18 14:34:02;;;;;;;7.10;1.70;;;24.90;47.70;;;;;;220623;1267;25293;-57
2022/07/18 14:39:09;;;;;;;9.00;2.00;;;24.90;47.70;;;;;;220122;1268;26512;-59
2022/07/18 14:44:13;;;;;;;3.90;1.90;;;24.90;47.80;;;;;;220624;1267;22996;-57
2022/07/18 14:49:17;;;;;;;8.70;2.10;;;24.90;47.70;;;;;;220804;1267;24374;-59
2022/07/18 14:54:23;;;;;;;5.30;1.60;;;24.90;47.80;;;;;;220738;1268;22535;-58
2022/07/18 14:59:27;;;;;;;4.90;2.10;;;24.90;47.80;;;;;;220574;1267;22560;-61
2022/07/18 15:04:38;;;;;;;5.30;1.70;;;24.90;48.40;;;;;;220347;1268;22547;-57
2022/07/18 15:10:05;;;;;;;4.10;2.00;;;24.90;47.20;;;;;;220440;1268;22528;-59
2022/07/18 15:15:53;;;;;;;;;;;;;;;;;;;;;
2022/07/18 15:21:04;;;;;;;6.10;2.10;;;24.90;47.20;;;;;;220478;1267;22549;-58
2022/07/18 15:26:26;;;;;;;4.60;2.30;;;25.00;47.30;;;;;;220434;1267;24062;-57
2022/07/18 15:31:37;;;;;;;4.10;1.90;;;24.90;47.00;;;;;;220660;1267;22541;-60
2022/07/18 15:37:04;;;;;;;5.20;2.20;;;25.00;47.20;;;;;;219960;1270;24965;-58
2022/07/18 15:42:16;;;;;;;4.10;1.70;;;24.90;47.20;;;;;;220193;1270;23907;-58
2022/07/18 15:47:34;;;;;;;3.40;1.80;;;24.90;47.60;;;;;;220566;1267;22718;-55
2022/07/18 15:53:54;;;;;;;3.10;1.70;;;24.90;46.50;;;;;;220515;1267;24293;-58
2022/07/18 15:59:06;;;;;;;3.00;1.70;;;24.90;45.60;;;;;;220871;1267;26472;-59
2022/07/18 16:04:37;;;;;;;3.90;1.60;;;24.90;44.30;;;;;;220553;1270;22739;-58
2022/07/18 16:10:14;;;;;;;3.90;1.90;;;25.00;45.40;;;;;;220225;1269;22521;-58
2022/07/18 16:15:30;;;;;;;3.00;1.80;;;25.00;44.80;;;;;;220756;1267;24269;-59
2022/07/18 16:20:44;;;;;;;5.50;1.70;;;25.00;45.10;;;;;;220634;1268;22617;-58
2022/07/18 16:25:50;;;;;;;4.30;1.80;;;25.00;45.30;;;;;;220731;1267;23910;-58
2022/07/18 16:30:56;;;;;;;4.30;1.80;;;24.90;45.80;;;;;;220570;1267;22558;-61
2022/07/18 16:36:09;;;;;;;3.50;1.70;;;25.00;45.60;;;;;;220509;1267;22564;-58
2022/07/18 16:41:17;;;;;;;2.60;1.70;;;25.00;45.70;;;;;;220773;1267;22539;-59
2022/07/18 16:46:31;;;;;;;3.40;1.80;;;24.90;45.90;;;;;;220712;1267;25648;-58
2022/07/18 16:51:44;;;;;;;3.50;1.90;;;24.90;46.00;;;;;;220223;1267;24074;-58
2022/07/18 16:56:48;;;;;;;4.20;1.80;;;24.90;45.80;;;;;;220711;1268;22723;-59
2022/07/18 17:01:52;;;;;;;4.50;1.80;;;25.00;45.90;;;;;;220481;1267;22564;-58
2022/07/18 17:07:08;;;;;;;5.60;2.40;;;24.90;45.90;;;;;;220658;1267;25286;-60
2022/07/18 17:12:27;;;;;;;4.40;2.10;;;24.90;45.70;;;;;;220657;1267;22544;-58
2022/07/18 17:17:32;;;;;;;3.50;1.70;;;25.00;45.80;;;;;;220595;1268;22567;-56
2022/07/18 17:22:37;;;;;;;3.80;1.90;;;25.00;45.30;;;;;;220417;1267;22645;-61
2022/07/18 17:27:42;;;;;;;3.70;2.10;;;25.00;46.00;;;;;;220881;1267;24288;-58
2022/07/18 17:32:47;;;;;;;4.90;1.70;;;24.90;46.00;;;;;;220499;1268;25359;-59
2022/07/18 17:38:13;;;;;;;3.00;1.60;;;24.90;46.00;;;;;;220201;1270;24441;-60
2022/07/18 17:43:18;;;;;;;3.70;1.90;;;24.90;46.10;;;;;;220384;1267;24414;-59
2022/07/18 17:48:22;;;;;;;3.80;1.60;;;24.90;46.20;;;;;;220283;1270;24421;-59
2022/07/18 17:53:26;;;;;;;5.50;2.10;;;24.90;46.20;;;;;;220880;1267;23036;-61
2022/07/18 17:58:30;;;;;;;5.90;1.80;;;24.90;46.00;;;;;;220834;1267;24323;-58
2022/07/18 18:03:52;;;;;;;4.80;1.90;;;24.90;46.20;;;;;;220431;1270;24299;-58
2022/07/18 18:09:05;;;;;;;4.40;1.50;;;24.90;46.30;;;;;;220506;1267;25232;-59
2022/07/18 18:14:14;;;;;;;3.30;1.60;;;24.90;46.30;;;;;;220377;1270;24281;-59
2022/07/18 18:19:46;;;;;;;3.20;1.70;;;24.90;46.30;;;;;;220524;1267;24467;-59
2022/07/18 18:25:00;;;;;;;4.40;1.90;;;24.90;46.40;;;;;;220332;1267;24275;-57
2022/07/18 18:30:40;;;;;;;3.20;1.80;;;24.90;46.50;;;;;;220556;1267;22694;-58
2022/07/18 18:35:56;;;;;;;4.20;2.10;;;24.90;46.50;;;;;;220348;1267;23902;-59
2022/07/18 18:41:02;;;;;;;3.20;1.80;;;24.90;46.90;;;;;;220904;1267;22536;-58
2022/07/18 18:46:18;;;;;;;4.80;1.70;;;24.90;46.60;;;;;;220321;1267;22534;-59
2022/07/18 18:51:25;;;;;;;3.80;1.80;;;24.90;46.80;;;;;;220990;1267;22829;-59
2022/07/18 18:56:47;;;;;;;3.20;1.90;;;24.90;47.00;;;;;;220783;1267;22557;-60
2022/07/18 19:01:58;;;;;;;2.60;1.50;;;24.90;47.10;;;;;;220276;1270;22537;-58
2022/07/18 19:07:50;;;;;;;3.50;1.70;;;24.90;47.20;;;;;;220612;1267;24342;-60
2022/07/18 19:13:10;;;;;;;3.30;1.90;;;24.90;47.30;;;;;;220556;1267;22710;-58
2022/07/18 19:24:33;;;;;;;3.50;1.70;;;24.80;47.40;;;;;;220678;1267;25405;-58
2022/07/18 19:30:16;;;;;;;3.20;1.90;;;24.80;47.90;;;;;;220427;1267;22591;-59
2022/07/18 19:35:34;;;;;;;2.90;1.80;;;24.80;47.70;;;;;;220512;1270;22551;-59
2022/07/18 19:41:01;;;;;;;4.00;1.80;;;24.80;47.70;;;;;;220778;1267;24304;-62
2022/07/18 19:46:26;;;;;;;4.30;1.90;;;24.80;47.80;;;;;;220321;1270;22535;-58
2022/07/18 19:52:13;;;;;;;3.50;1.80;;;24.80;47.90;;;;;;220188;1267;23861;-59
2022/07/18 19:57:29;;;;;;;3.40;1.90;;;24.80;47.90;;;;;;220315;1267;25251;-58
2022/07/18 20:03:05;;;;;;;2.80;1.60;;;24.70;48.00;;;;;;220470;1267;22848;-59
2022/07/18 20:08:21;;;;;;;3.20;1.80;;;24.70;48.10;;;;;;220836;1268;25364;-58
2022/07/18 20:13:37;;;;;;;4.50;2.00;;;24.70;48.20;;;;;;220630;1267;22554;-59
2022/07/18 20:18:45;;;;;;;4.80;1.90;;;24.70;48.40;;;;;;220477;1267;23691;-59
2022/07/18 20:23:55;;;;;;;2.70;1.60;;;24.70;48.70;;;;;;220740;1267;25178;-59
2022/07/18 20:29:03;;;;;;;3.20;1.80;;;24.70;48.50;;;;;;220658;1270;25564;-59
2022/07/18 20:34:07;;;;;;;3.30;1.80;;;24.70;48.70;;;;;;220400;1270;23042;-60
2022/07/18 20:39:11;;;;;;;2.80;1.90;;;24.70;48.80;;;;;;220569;1270;22574;-58
2022/07/18 20:44:18;;;;;;;5.10;2.10;;;24.70;48.90;;;;;;220815;1269;22810;-60
2022/07/18 20:49:22;;;;;;;4.40;2.00;;;24.70;48.90;;;;;;220475;1271;24237;-59
2022/07/18 20:54:27;;;;;;;3.20;2.00;;;24.70;49.30;;;;;;220162;1270;26474;-59
2022/07/18 20:59:51;;;;;;;3.80;2.50;;;24.70;48.90;;;;;;220832;1270;24347;-59
2022/07/18 21:04:54;;;;;;;4.00;2.50;;;24.70;49.20;;;;;;220768;1269;22530;-58
2022/07/18 21:09:58;;;;;;;3.00;2.20;;;24.70;49.30;;;;;;220585;1270;24422;-61
2022/07/18 21:15:05;;;;;;;4.00;2.40;;;24.60;49.30;;;;;;220714;1270;22545;-61
2022/07/18 21:20:23;;;;;;;4.10;2.10;;;24.60;49.50;;;;;;220571;1268;23945;-59
2022/07/18 21:25:27;;;;;;;3.90;2.40;;;24.60;49.80;;;;;;220548;1270;25315;-58
2022/07/18 21:30:33;;;;;;;3.30;2.20;;;24.60;49.60;;;;;;220601;1270;22536;-59
2022/07/18 21:35:37;;;;;;;4.00;2.50;;;24.60;49.70;;;;;;220623;1268;25521;-60
2022/07/18 21:40:41;;;;;;;3.60;2.20;;;24.60;50.40;;;;;;220586;1267;25370;-58
2022/07/18 21:45:45;;;;;;;3.60;2.40;;;24.60;50.00;;;;;;220408;1267;22719;-62
2022/07/18 21:50:49;;;;;;;5.20;2.70;;;24.60;50.10;;;;;;220814;1267;22643;-58
2022/07/18 21:55:52;;;;;;;4.70;2.90;;;24.60;50.50;;;;;;220530;1270;24283;-59
2022/07/18 22:00:57;;;;;;;6.60;3.00;;;24.60;50.20;;;;;;220230;1270;22551;-60
2022/07/18 22:06:01;;;;;;;5.10;3.00;;;24.60;50.20;;;;;;220730;1267;25739;-60
2022/07/18 22:11:05;;;;;;;6.10;3.50;;;24.60;50.30;;;;;;220934;1267;24283;-59
2022/07/18 22:16:08;;;;;;;5.60;3.10;;;24.60;50.30;;;;;;220162;1270;22992;-59
2022/07/18 22:21:12;;;;;;;5.00;3.10;;;24.60;50.40;;;;;;220293;1268;25240;-61
2022/07/18 22:26:18;;;;;;;6.10;3.50;;;24.50;50.40;;;;;;220797;1268;22678;-61
2022/07/18 22:31:21;;;;;;;6.20;3.10;;;24.60;50.70;;;;;;220642;1267;25121;-60
2022/07/18 22:36:25;;;;;;;6.30;3.50;;;24.50;50.40;;;;;;220265;1270;22622;-63
2022/07/18 22:41:29;;;;;;;6.00;3.30;;;24.50;50.50;;;;;;220454;1267;26309;-63
2022/07/18 22:46:33;;;;;;;5.60;3.20;;;24.50;50.70;;;;;;220647;1267;22534;-60
2022/07/18 22:51:37;;;;;;;11.00;3.80;;;24.50;50.70;;;;;;220724;1267;22528;-63
2022/07/18 22:56:40;;;;;;;6.10;3.30;;;24.50;50.70;;;;;;220764;1268;22678;-59
2022/07/18 23:01:53;;;;;;;7.70;3.50;;;24.50;50.80;;;;;;220519;1267;25245;-59
2022/07/18 23:06:57;;;;;;;5.20;3.20;;;24.50;50.90;;;;;;220570;1268;22617;-60
2022/07/18 23:12:03;;;;;;;5.40;3.60;;;24.50;51.20;;;;;;220558;1267;25553;-58
2022/07/18 23:17:08;;;;;;;4.90;3.40;;;24.50;51.50;;;;;;220520;1267;22926;-61
2022/07/18 23:22:12;;;;;;;5.70;3.50;;;24.50;51.20;;;;;;220748;1267;22543;-58
2022/07/18 23:27:16;;;;;;;5.50;3.50;;;24.40;51.20;;;;;;220232;1271;23050;-62
2022/07/18 23:32:19;;;;;;;6.00;3.20;;;24.40;51.20;;;;;;220100;1267;22546;-61
2022/07/18 23:37:23;;;;;;;6.20;3.50;;;24.40;51.20;;;;;;220370;1267;22565;-59
2022/07/18 23:42:27;;;;;;;7.40;3.10;;;24.40;51.30;;;;;;220605;1270;24286;-59
2022/07/18 23:47:31;;;;;;;6.50;3.40;;;24.40;51.30;;;;;;220399;1270;22845;-59
2022/07/18 23:52:38;;;;;;;6.00;3.70;;;24.40;51.40;;;;;;220519;1268;23050;-61
2022/07/18 23:57:41;;;;;;;6.30;3.60;;;24.30;51.40;;;;;;220219;1271;23990;-60
